Time;durP1;ratioP1;P1;durP2;ratioP2;P2;SDS_P1;SDS_P2;PMS_P1;PMS_P2;Temp;Humidity;BMP_temperature;BMP_pressure;BME280_temperature;BME280_humidity;BME280_pressure;Samples;Min_cycle;Max_cycle;Signal;HPM_P1;HPM_P2
2022/01/11 00:00:37;;;;;;;5.82;4.25;;;;;;;7.12;100.00;99547.38;4993753;28;20034;-66
2022/01/11 00:03:05;;;;;;;6.13;4.50;;;;;;;6.92;100.00;99551.16;4993278;28;20578;-65
2022/01/11 00:05:40;;;;;;;5.53;4.47;;;;;;;7.44;100.00;99629.28;4993748;28;20085;-65
2022/01/11 00:08:08;;;;;;;8.68;5.97;;;;;;;6.90;100.00;99527.63;4992000;28;20049;-68
2022/01/11 00:10:46;;;;;;;7.68;5.45;;;;;;;7.18;100.00;99585.16;4992182;28;20421;-66
2022/01/11 00:13:11;;;;;;;6.55;4.55;;;;;;;6.56;100.00;99492.97;4993038;28;20037;-68
2022/01/11 00:15:37;;;;;;;5.80;4.60;;;;;;;7.11;100.00;99591.22;4993470;28;20035;-67
2022/01/11 00:18:02;;;;;;;5.50;4.40;;;;;;;6.92;100.00;99553.69;4993281;28;20057;-68
2022/01/11 00:20:28;;;;;;;5.28;4.05;;;;;;;6.49;100.00;99487.22;4993309;28;20241;-68
2022/01/11 00:25:27;;;;;;;5.68;3.80;;;;;;;7.06;100.00;99581.19;4993181;28;20042;-67
2022/01/11 00:27:53;;;;;;;5.20;3.55;;;;;;;6.87;100.00;99552.13;4992656;28;20173;-68
2022/01/11 00:30:19;;;;;;;4.90;3.83;;;;;;;6.50;100.00;99515.81;4993020;28;20113;-68
2022/01/11 00:32:50;;;;;;;5.03;3.22;;;;;;;7.25;100.00;99640.63;4993134;28;20038;-68
2022/01/11 00:35:17;;;;;;;4.35;3.17;;;;;;;7.40;100.00;99654.66;4991602;28;20102;-67
2022/01/11 00:37:44;;;;;;;4.22;3.20;;;;;;;6.76;100.00;99559.91;4992861;28;20467;-68
2022/01/11 00:40:10;;;;;;;3.90;3.25;;;;;;;6.97;100.00;99592.31;4991402;28;20035;-67
2022/01/11 00:42:36;;;;;;;4.25;3.42;;;;;;;6.90;100.00;99602.56;4993013;28;20034;-68
2022/01/11 00:45:09;;;;;;;4.40;3.50;;;;;;;7.20;100.00;99666.84;4993209;28;20042;-69
2022/01/11 00:47:35;;;;;;;4.53;3.40;;;;;;;7.01;100.00;99646.19;4992576;28;20038;-68
2022/01/11 00:50:01;;;;;;;4.63;3.53;;;;;;;6.56;100.00;99588.91;4993164;28;20034;-68
2022/01/11 00:52:27;;;;;;;5.07;3.67;;;;;;;7.08;100.00;99646.88;4992495;28;20034;-67
2022/01/11 00:54:52;;;;;;;4.60;3.70;;;;;;;6.60;100.00;99568.63;4992092;28;20030;-68
2022/01/11 00:57:17;;;;;;;6.07;4.00;;;;;;;6.63;100.00;99598.88;4992596;28;20034;-68
2022/01/11 00:59:43;;;;;;;4.80;3.38;;;;;;;6.70;100.00;99620.63;4991353;28;20034;-68
2022/01/11 01:02:26;;;;;;;5.37;3.92;;;;;;;7.03;100.00;99670.53;4820767;22;10000912;-66
2022/01/11 01:04:51;;;;;;;7.03;4.88;;;;;;;7.05;100.00;99662.94;5002224;28;20251;-66
2022/01/11 01:07:17;;;;;;;5.93;4.43;;;;;;;6.58;100.00;99617.50;5011953;28;20483;-66
2022/01/11 01:10:01;;;;;;;4.72;3.85;;;;;;;6.89;100.00;99682.59;5012116;28;20037;-66
2022/01/11 01:12:27;;;;;;;5.63;4.28;;;;;;;6.80;100.00;99633.91;4994273;28;20458;-66
2022/01/11 01:14:52;;;;;;;5.13;3.80;;;;;;;7.24;100.00;99679.41;5011752;28;20038;-66
2022/01/11 01:17:18;;;;;;;4.35;3.35;;;;;;;6.92;100.00;99626.13;5006146;28;20124;-66
2022/01/11 01:19:43;;;;;;;4.60;3.50;;;;;;;6.73;100.00;99624.81;4992255;28;20030;-66
2022/01/11 01:22:09;;;;;;;3.33;2.97;;;;;;;7.03;100.00;99666.34;5012287;28;20036;-66
2022/01/11 01:24:34;;;;;;;3.28;2.70;;;;;;;6.70;100.00;99628.22;5011617;28;20029;-65
2022/01/11 01:26:59;;;;;;;3.40;2.30;;;;;;;6.97;100.00;99665.59;5012078;28;20030;-65
2022/01/11 01:29:25;;;;;;;3.47;2.42;;;;;;;6.70;100.00;99619.78;4993784;28;20026;-65
2022/01/11 01:31:51;;;;;;;2.70;2.13;;;;;;;7.07;100.00;99686.50;5004417;28;20038;-66
2022/01/11 01:34:16;;;;;;;3.03;2.15;;;;;;;6.60;100.00;99621.66;4991931;28;20492;-65
2022/01/11 01:36:42;;;;;;;2.72;2.00;;;;;;;6.61;100.00;99658.69;4991969;28;20478;-65
2022/01/11 01:39:07;;;;;;;3.15;2.38;;;;;;;7.03;100.00;99682.34;4991610;28;20041;-65
2022/01/11 01:41:33;;;;;;;3.28;2.30;;;;;;;6.90;100.00;99643.00;4991789;28;20033;-65
2022/01/11 01:44:03;;;;;;;3.80;2.60;;;;;;;7.09;100.00;99721.84;4974300;28;20054;-65
2022/01/11 01:46:29;;;;;;;2.95;2.28;;;;;;;7.17;100.00;99699.78;4991217;28;20030;-65
2022/01/11 01:48:58;;;;;;;3.00;2.40;;;;;;;7.26;100.00;99692.84;4992095;28;20117;-65
2022/01/11 01:51:24;;;;;;;3.28;2.50;;;;;;;7.11;100.00;99700.72;4991689;28;20149;-65
2022/01/11 01:53:51;;;;;;;3.60;2.55;;;;;;;6.99;100.00;99663.88;5009545;28;20116;-66
2022/01/11 01:56:20;;;;;;;4.20;3.25;;;;;;;6.88;100.00;99712.94;4993007;28;20168;-65
2022/01/11 01:58:46;;;;;;;4.70;3.90;;;;;;;6.82;100.00;99662.50;4991074;28;20101;-65
2022/01/11 02:01:13;;;;;;;4.53;3.47;;;;;;;7.08;100.00;99700.78;4991594;28;20038;-65
2022/01/11 02:03:41;;;;;;;5.28;3.50;;;;;;;6.99;100.00;99714.41;4990704;28;20046;-65
2022/01/11 02:06:08;;;;;;;5.25;3.58;;;;;;;6.68;100.00;99664.44;4991332;28;20038;-65
2022/01/11 02:08:34;;;;;;;6.25;4.05;;;;;;;7.09;100.00;99724.38;4991331;28;20065;-65
2022/01/11 02:11:00;;;;;;;6.80;4.40;;;;;;;7.15;100.00;99725.06;4991382;28;20415;-65
2022/01/11 02:13:26;;;;;;;5.28;4.40;;;;;;;7.03;100.00;99728.66;4990903;28;20038;-64
2022/01/11 02:15:52;;;;;;;5.20;3.97;;;;;;;6.34;100.00;99636.41;4991547;28;20084;-65
2022/01/11 02:18:21;;;;;;;5.13;4.03;;;;;;;6.78;100.00;99719.00;4991129;28;20408;-65
2022/01/11 02:20:50;;;;;;;5.93;4.20;;;;;;;6.85;100.00;99711.28;5000025;28;20034;-65
2022/01/11 02:23:17;;;;;;;5.10;4.10;;;;;;;6.67;100.00;99681.31;5010789;28;20496;-64
2022/01/11 02:25:43;;;;;;;5.72;3.97;;;;;;;7.19;100.00;99715.75;5010616;28;20026;-65
2022/01/11 02:28:12;;;;;;;4.78;3.80;;;;;;;7.06;100.00;99726.94;5010447;28;20030;-65
2022/01/11 02:30:37;;;;;;;5.10;3.80;;;;;;;6.96;100.00;99718.69;5010828;28;20033;-64
2022/01/11 02:33:06;;;;;;;24.55;9.52;;;;;;;6.69;100.00;99679.59;5010563;28;20415;-64
2022/01/11 02:35:32;;;;;;;15.27;6.53;;;;;;;6.84;100.00;99691.09;5010728;28;20030;-65
2022/01/11 02:37:57;;;;;;;7.25;4.80;;;;;;;6.86;100.00;99724.75;5010647;28;20040;-65
2022/01/11 02:40:23;;;;;;;7.50;5.38;;;;;;;7.03;100.00;99731.19;5010738;28;20087;-65
2022/01/11 02:42:48;;;;;;;13.77;9.32;;;;;;;6.74;100.00;99677.81;5010449;28;20034;-65
2022/01/11 02:45:16;;;;;;;9.18;6.57;;;;;;;6.58;100.00;99671.34;5010688;28;20073;-65
2022/01/11 02:47:44;;;;;;;4.80;3.67;;;;;;;6.61;100.00;99690.69;5010350;28;20044;-64
2022/01/11 02:50:10;;;;;;;6.30;3.70;;;;;;;6.34;100.00;99648.22;5010605;28;20488;-65
2022/01/11 02:52:36;;;;;;;5.63;3.60;;;;;;;6.48;100.00;99684.16;5010222;28;20029;-64
2022/01/11 02:55:03;;;;;;;5.55;3.80;;;;;;;7.03;100.00;99757.31;5010505;28;20042;-64
2022/01/11 02:57:28;;;;;;;5.35;3.65;;;;;;;6.27;100.00;99651.69;5010292;28;20125;-64
2022/01/11 02:59:54;;;;;;;4.65;3.20;;;;;;;6.76;100.00;99759.44;5010421;28;20478;-64
2022/01/11 03:02:19;;;;;;;5.55;2.92;;;;;;;6.27;100.00;99677.75;5010819;28;20058;-65
2022/01/11 03:04:44;;;;;;;3.50;2.70;;;;;;;6.46;100.00;99709.44;5010345;28;20036;-64
2022/01/11 03:07:10;;;;;;;3.45;2.63;;;;;;;6.51;100.00;99709.38;5010085;28;20140;-64
2022/01/11 03:09:53;;;;;;;2.70;2.10;;;;;;;6.61;100.00;99718.47;5010238;28;20033;-64
2022/01/11 03:12:22;;;;;;;3.28;2.50;;;;;;;6.75;100.00;99745.16;5010356;28;20026;-64
2022/01/11 03:14:47;;;;;;;3.78;2.40;;;;;;;6.73;100.00;99741.84;5010378;28;20026;-64
2022/01/11 03:17:13;;;;;;;3.40;2.38;;;;;;;6.42;100.00;99709.53;4995569;28;20036;-64
2022/01/11 03:19:38;;;;;;;4.28;3.15;;;;;;;6.62;100.00;99748.72;5013761;28;20484;-64
2022/01/11 03:22:04;;;;;;;3.65;2.70;;;;;;;6.63;100.00;99739.47;5013938;28;20095;-64
2022/01/11 03:24:29;;;;;;;3.65;2.78;;;;;;;6.40;100.00;99696.91;5014053;28;20069;-64
2022/01/11 03:26:55;;;;;;;4.40;2.88;;;;;;;6.67;100.00;99762.13;5013755;28;20033;-65
2022/01/11 03:29:20;;;;;;;3.40;2.83;;;;;;;6.67;100.00;99762.13;5013863;28;20025;-64
2022/01/11 03:31:45;;;;;;;3.05;2.30;;;;;;;6.28;100.00;99712.22;4996078;28;20026;-64
2022/01/11 03:34:17;;;;;;;4.90;2.80;;;;;;;6.41;100.00;99685.13;5007262;28;20049;-64
2022/01/11 03:36:43;;;;;;;3.38;2.20;;;;;;;6.25;100.00;99716.50;5013491;28;20025;-64
2022/01/11 03:39:09;;;;;;;2.63;2.03;;;;;;;6.52;100.00;99777.50;5013465;28;20080;-64
2022/01/11 03:41:34;;;;;;;2.70;1.80;;;;;;;6.69;100.00;99752.00;5013355;28;20447;-65
2022/01/11 03:43:59;;;;;;;2.58;1.88;;;;;;;6.51;100.00;99765.75;4994008;28;20113;-65
2022/01/11 03:46:25;;;;;;;2.72;2.05;;;;;;;6.12;100.00;99686.41;4993985;28;20080;-64
2022/01/11 03:48:50;;;;;;;3.60;2.08;;;;;;;6.12;100.00;99703.22;4993746;28;20173;-64
2022/01/11 03:51:16;;;;;;;3.38;2.08;;;;;;;5.80;100.00;99687.69;4993946;28;20428;-65
2022/01/11 03:53:53;;;;;;;2.67;1.90;;;;;;;5.98;100.00;99728.63;4993053;28;20494;-64
2022/01/11 03:56:22;;;;;;;2.70;2.15;;;;;;;6.14;100.00;99754.50;4993132;28;20034;-64
2022/01/11 03:58:51;;;;;;;3.03;2.15;;;;;;;6.03;100.00;99737.00;4993713;28;20177;-64
2022/01/11 04:01:17;;;;;;;3.03;2.22;;;;;;;6.25;100.00;99784.63;4993496;28;20117;-64
2022/01/11 04:03:44;;;;;;;2.90;2.20;;;;;;;6.07;100.00;99745.34;4976002;28;20051;-64
2022/01/11 04:06:09;;;;;;;3.08;2.20;;;;;;;6.35;100.00;99821.50;4993269;28;20544;-64
2022/01/11 04:08:35;;;;;;;2.85;2.30;;;;;;;5.96;100.00;99760.63;4993562;28;20153;-64
2022/01/11 04:11:00;;;;;;;3.08;2.10;;;;;;;5.75;100.00;99770.13;4993643;28;20358;-64
2022/01/11 04:13:26;;;;;;;3.28;2.38;;;;;;;5.66;100.00;99766.03;4993382;28;20026;-64
2022/01/11 04:15:52;;;;;;;3.70;2.40;;;;;;;5.67;100.00;99771.88;4993230;28;20485;-64
2022/01/11 04:18:17;;;;;;;3.15;2.33;;;;;;;5.77;100.00;99756.66;4975712;28;20065;-65
2022/01/11 04:20:43;;;;;;;3.10;2.50;;;;;;;5.99;100.00;99837.97;4993095;28;20037;-65
2022/01/11 04:23:11;;;;;;;4.10;3.03;;;;;;;5.86;100.00;99826.34;4993067;28;20544;-64
2022/01/11 04:25:37;;;;;;;3.42;2.60;;;;;;;5.52;100.00;99820.81;4993448;28;20037;-64
2022/01/11 04:28:03;;;;;;;4.93;3.08;;;;;;;5.52;100.00;99835.09;4992876;28;20018;-66
2022/01/11 04:30:29;;;;;;;4.68;3.53;;;;;;;5.50;100.00;99837.63;4995091;28;20029;-65
2022/01/11 04:32:54;;;;;;;5.15;3.55;;;;;;;5.03;100.00;99746.56;5012592;28;20521;-66
2022/01/11 04:35:20;;;;;;;4.15;3.30;;;;;;;4.96;100.00;99745.78;4996963;28;20033;-66
2022/01/11 04:37:46;;;;;;;4.70;3.70;;;;;;;5.45;100.00;99851.94;4999955;28;20500;-66
2022/01/11 04:40:13;;;;;;;5.68;3.33;;;;;;;4.90;100.00;99785.28;4994832;28;20064;-66
2022/01/11 04:42:38;;;;;;;5.65;4.00;;;;;;;4.98;100.00;99802.00;5012299;28;20130;-66
2022/01/11 04:45:04;;;;;;;5.28;3.90;;;;;;;5.21;100.00;99816.91;4994432;28;20042;-67
2022/01/11 04:47:30;;;;;;;3.97;3.10;;;;;;;5.36;100.00;99857.09;5012449;28;20061;-67
2022/01/11 04:49:55;;;;;;;4.78;3.70;;;;;;;4.86;100.00;99776.91;5011796;28;20077;-66
2022/01/11 04:52:20;;;;;;;5.50;3.90;;;;;;;4.93;100.00;99800.38;5012121;28;20026;-66
2022/01/11 04:54:46;;;;;;;5.50;4.18;;;;;;;4.90;100.00;99808.78;5012317;28;20030;-66
2022/01/11 04:57:11;;;;;;;5.70;4.10;;;;;;;5.12;100.00;99824.53;4994517;28;20030;-66
2022/01/11 04:59:37;;;;;;;4.88;4.05;;;;;;;5.29;100.00;99871.41;4994342;28;20108;-67
2022/01/11 05:02:02;;;;;;;6.05;4.63;;;;;;;5.27;100.00;99874.78;5011784;28;20092;-66
2022/01/11 05:04:28;;;;;;;8.10;5.07;;;;;;;5.34;100.00;99878.94;5011819;28;20069;-66
2022/01/11 05:06:55;;;;;;;6.93;4.80;;;;;;;4.98;100.00;99839.78;5011881;28;20034;-67
2022/01/11 05:09:21;;;;;;;5.53;4.00;;;;;;;5.12;100.00;99840.50;5011828;28;20403;-68
2022/01/11 05:11:46;;;;;;;5.50;4.10;;;;;;;5.28;100.00;99843.72;5011774;28;20037;-68
2022/01/11 05:14:12;;;;;;;5.50;3.80;;;;;;;4.85;100.00;99797.91;5011299;28;20506;-67
2022/01/11 05:16:37;;;;;;;4.82;3.70;;;;;;;4.99;100.00;99850.69;5011837;28;20492;-67
2022/01/11 05:19:02;;;;;;;4.80;3.35;;;;;;;5.05;100.00;99866.56;5011217;28;20030;-66
2022/01/11 05:21:28;;;;;;;4.60;3.50;;;;;;;4.89;100.00;99851.63;4993992;28;20026;-67
2022/01/11 05:23:53;;;;;;;4.47;3.47;;;;;;;4.99;100.00;99865.81;5011445;28;20037;-66
2022/01/11 05:26:19;;;;;;;4.60;3.70;;;;;;;5.18;100.00;99931.16;4993899;28;20042;-69
2022/01/11 05:28:44;;;;;;;4.70;3.30;;;;;;;4.78;100.00;99871.81;5011403;28;20546;-67
2022/01/11 05:31:10;;;;;;;4.28;3.25;;;;;;;4.50;100.00;99830.03;4993678;28;20022;-64
2022/01/11 05:33:35;;;;;;;6.05;4.00;;;;;;;4.88;100.00;99896.09;5011308;28;20515;-65
2022/01/11 05:36:00;;;;;;;7.30;5.45;;;;;;;4.60;100.00;99845.91;5011148;28;20034;-66
2022/01/11 05:38:26;;;;;;;5.43;4.00;;;;;;;4.68;100.00;99876.91;5010463;28;20030;-67
2022/01/11 05:40:51;;;;;;;5.22;3.90;;;;;;;4.92;100.00;99897.75;5011231;28;20032;-67
2022/01/11 05:43:17;;;;;;;5.68;4.32;;;;;;;5.14;100.00;99949.66;5011404;28;20022;-67
2022/01/11 05:45:43;;;;;;;6.45;4.75;;;;;;;4.46;100.00;99848.53;5011203;28;20026;-65
2022/01/11 05:48:08;;;;;;;4.15;2.88;;;;;;;4.78;100.00;99902.03;4993245;28;20034;-67
2022/01/11 05:50:34;;;;;;;4.88;3.60;;;;;;;5.02;100.00;99969.03;5011348;28;20030;-66
2022/01/11 05:53:00;;;;;;;4.15;3.17;;;;;;;4.69;100.00;99886.16;5010278;28;20396;-67
2022/01/11 05:55:25;;;;;;;4.43;3.22;;;;;;;5.04;100.00;99970.72;4993586;28;20081;-67
2022/01/11 05:57:51;;;;;;;4.40;3.30;;;;;;;4.96;100.00;99947.25;4991762;28;20033;-67
2022/01/11 06:00:19;;;;;;;4.82;2.95;;;;;;;5.07;100.00;99972.38;5010521;28;20045;-66
2022/01/11 06:02:46;;;;;;;4.65;3.78;;;;;;;4.70;100.00;99925.56;5007847;28;20046;-66
2022/01/11 06:05:12;;;;;;;5.15;3.17;;;;;;;5.04;100.00;99969.88;5011209;28;20026;-66
2022/01/11 06:07:39;;;;;;;5.60;3.72;;;;;;;5.18;100.00;100008.41;5011154;28;20041;-67
2022/01/11 06:10:06;;;;;;;4.55;3.60;;;;;;;5.37;100.00;99987.28;5011024;28;20065;-67
2022/01/11 06:12:31;;;;;;;6.07;4.45;;;;;;;5.09;100.00;99976.53;5010927;28;20041;-67
2022/01/11 06:14:57;;;;;;;7.88;5.60;;;;;;;4.72;100.00;99929.75;4993088;28;20108;-66
2022/01/11 06:17:22;;;;;;;8.32;5.88;;;;;;;5.12;100.00;99993.34;4992347;28;20150;-66
2022/01/11 06:19:48;;;;;;;8.80;5.38;;;;;;;5.17;100.00;99997.50;5010143;28;20487;-66
2022/01/11 06:22:13;;;;;;;7.63;4.47;;;;;;;4.72;100.00;99965.00;5010158;28;20512;-66
2022/01/11 06:24:38;;;;;;;7.32;5.00;;;;;;;4.59;100.00;99963.41;4992477;28;20026;-66
2022/01/11 06:27:04;;;;;;;5.50;3.97;;;;;;;4.77;100.00;99992.69;5010280;28;20561;-66
2022/01/11 06:29:30;;;;;;;6.50;4.28;;;;;;;4.78;100.00;99995.19;5009789;28;20555;-66
2022/01/11 06:31:55;;;;;;;8.98;4.38;;;;;;;4.85;100.00;100006.91;4992281;28;20033;-66
2022/01/11 06:34:21;;;;;;;9.52;5.22;;;;;;;4.50;100.00;99965.94;5010932;28;20060;-66
2022/01/11 06:36:46;;;;;;;8.38;4.93;;;;;;;4.97;100.00;100021.94;5010670;28;20108;-65
2022/01/11 06:39:11;;;;;;;7.35;4.43;;;;;;;4.88;100.00;100032.09;5010637;28;20037;-67
2022/01/11 06:41:37;;;;;;;10.90;5.82;;;;;;;4.79;100.00;100033.81;5010543;28;20029;-65
2022/01/11 06:44:05;;;;;;;7.00;4.55;;;;;;;4.91;100.00;100048.88;5010466;28;20092;-66
2022/01/11 06:46:30;;;;;;;5.95;4.15;;;;;;;4.65;100.00;99993.59;5010423;28;20030;-66
2022/01/11 06:48:57;;;;;;;5.93;3.85;;;;;;;4.34;100.00;99961.81;5010474;28;20381;-66
2022/01/11 06:51:23;;;;;;;11.32;5.13;;;;;;;4.58;100.00;100007.03;5014084;28;20022;-66
2022/01/11 06:53:48;;;;;;;7.55;4.72;;;;;;;4.84;100.00;100054.75;5014550;28;20471;-66
2022/01/11 06:56:14;;;;;;;11.32;4.95;;;;;;;4.91;100.00;100066.50;4996943;28;20026;-67
2022/01/11 06:58:40;;;;;;;9.45;4.97;;;;;;;4.82;100.00;100059.81;5014165;28;20065;-67
2022/01/11 07:01:05;;;;;;;10.85;5.57;;;;;;;4.54;100.00;99990.25;5014221;28;20088;-66
2022/01/11 07:03:31;;;;;;;13.77;6.55;;;;;;;4.93;100.00;100055.56;5014520;28;20430;-65
2022/01/11 07:05:57;;;;;;;7.57;4.40;;;;;;;4.95;100.00;100053.06;4996523;28;20038;-66
2022/01/11 07:08:24;;;;;;;6.93;4.03;;;;;;;4.97;100.00;100069.81;4996808;28;20054;-66
2022/01/11 07:10:50;;;;;;;5.20;3.33;;;;;;;4.67;100.00;100018.75;5014323;28;20129;-65
2022/01/11 07:13:16;;;;;;;5.95;3.90;;;;;;;4.97;100.00;100064.78;5013980;28;20029;-66
2022/01/11 07:15:42;;;;;;;4.07;3.13;;;;;;;4.96;100.00;100083.25;5013957;28;20443;-65
2022/01/11 07:18:10;;;;;;;3.47;2.88;;;;;;;4.64;100.00;100034.69;5014082;28;20036;-66
2022/01/11 07:20:37;;;;;;;4.78;3.13;;;;;;;4.61;100.00;100033.88;5013930;28;20069;-66
2022/01/11 07:23:04;;;;;;;4.32;2.92;;;;;;;4.91;100.00;100079.91;5014060;28;20092;-66
2022/01/11 07:25:32;;;;;;;4.57;2.83;;;;;;;4.97;100.00;100109.28;5014179;28;20553;-66
2022/01/11 07:27:58;;;;;;;4.10;3.17;;;;;;;4.99;100.00;100105.91;5013788;28;20057;-66
2022/01/11 07:30:24;;;;;;;4.05;2.88;;;;;;;4.88;100.00;100107.63;5014255;28;20070;-65
2022/01/11 07:32:50;;;;;;;4.38;2.50;;;;;;;4.50;100.00;100066.59;5013975;28;20091;-66
2022/01/11 07:35:15;;;;;;;5.05;3.30;;;;;;;4.77;100.00;100104.31;4996396;28;20034;-66
2022/01/11 07:37:41;;;;;;;4.32;2.90;;;;;;;4.43;100.00;100049.84;5013870;28;20113;-66
2022/01/11 07:40:07;;;;;;;4.35;3.35;;;;;;;4.70;100.00;100110.19;5013530;28;20087;-66
2022/01/11 07:42:32;;;;;;;3.63;2.70;;;;;;;4.52;100.00;100087.56;5013552;28;20117;-66
2022/01/11 07:44:58;;;;;;;6.80;3.78;;;;;;;4.61;100.00;100114.41;5013442;28;20117;-66
2022/01/11 07:47:23;;;;;;;6.25;3.80;;;;;;;4.44;100.00;100043.97;4995850;28;20037;-65
2022/01/11 07:49:49;;;;;;;6.53;3.22;;;;;;;4.68;100.00;100111.03;5013606;28;20025;-66
2022/01/11 07:52:15;;;;;;;3.22;2.60;;;;;;;4.30;100.00;100048.19;4995933;28;20088;-66
2022/01/11 07:54:41;;;;;;;5.60;3.85;;;;;;;4.65;100.00;100099.31;5013264;28;20033;-66
2022/01/11 07:57:07;;;;;;;5.68;3.88;;;;;;;4.48;100.00;100093.44;5013380;28;20101;-67
2022/01/11 07:59:32;;;;;;;5.10;3.20;;;;;;;4.62;100.00;100132.03;4995337;28;20038;-66
2022/01/11 08:01:59;;;;;;;5.50;3.67;;;;;;;4.68;100.00;100121.09;5012073;28;20038;-66
2022/01/11 08:04:26;;;;;;;6.13;3.67;;;;;;;4.81;100.00;100131.16;5013325;28;20036;-66
2022/01/11 08:06:52;;;;;;;5.07;3.38;;;;;;;4.82;100.00;100152.13;5013421;28;20503;-67
2022/01/11 08:09:18;;;;;;;5.68;3.40;;;;;;;4.63;100.00;100077.50;5012905;28;20034;-66
2022/01/11 08:11:44;;;;;;;5.03;3.38;;;;;;;4.86;100.00;100128.63;5013099;28;20037;-66
2022/01/11 08:14:09;;;;;;;3.55;2.40;;;;;;;4.13;100.00;100040.69;5012831;28;20037;-66
2022/01/11 08:16:35;;;;;;;4.45;2.97;;;;;;;4.78;100.00;100142.91;5012962;28;20034;-66
2022/01/11 08:19:00;;;;;;;3.60;2.40;;;;;;;4.39;100.00;100023.03;5012933;28;20480;-65
2022/01/11 08:21:26;;;;;;;4.50;2.80;;;;;;;4.65;100.00;100095.94;5012997;28;20478;-66
2022/01/11 08:23:51;;;;;;;5.95;2.92;;;;;;;4.69;100.00;100105.16;5012770;28;20036;-66
2022/01/11 08:26:17;;;;;;;4.20;2.80;;;;;;;4.95;100.00;100153.78;5012734;28;20034;-66
2022/01/11 08:28:44;;;;;;;5.63;3.53;;;;;;;4.84;100.00;100163.88;5012427;28;20034;-66
2022/01/11 08:31:09;;;;;;;4.82;3.30;;;;;;;4.43;100.00;100089.28;5012796;28;20025;-66
2022/01/11 08:33:35;;;;;;;6.88;3.95;;;;;;;5.02;100.00;100155.44;5012828;28;20029;-66
2022/01/11 08:36:00;;;;;;;5.60;3.45;;;;;;;4.51;100.00;100106.06;4995177;28;20036;-66
2022/01/11 08:38:26;;;;;;;4.10;2.70;;;;;;;4.46;100.00;100119.50;5012354;28;20037;-65
2022/01/11 08:40:51;;;;;;;3.00;2.28;;;;;;;4.93;100.00;100173.09;5012695;28;20079;-66
2022/01/11 08:43:17;;;;;;;3.60;2.88;;;;;;;4.86;100.00;100153.81;5012247;28;20407;-66
2022/01/11 08:45:43;;;;;;;4.25;3.08;;;;;;;5.19;100.00;100182.25;5012333;28;20444;-66
2022/01/11 08:48:08;;;;;;;4.00;2.88;;;;;;;4.97;100.00;100116.84;4994732;28;20037;-66
2022/01/11 08:50:34;;;;;;;5.47;3.70;;;;;;;5.08;100.00;100193.22;5012471;28;20026;-66
2022/01/11 08:52:59;;;;;;;13.50;6.10;;;;;;;5.09;100.00;100134.44;5012107;28;20574;-65
2022/01/11 08:55:25;;;;;;;8.40;4.50;;;;;;;5.16;100.00;100172.19;5012595;28;20395;-67
2022/01/11 08:57:50;;;;;;;6.20;4.05;;;;;;;5.22;100.00;100168.81;5011881;28;20030;-64
2022/01/11 09:00:18;;;;;;;5.22;3.55;;;;;;;5.03;100.00;100198.25;5012121;28;20092;-66
2022/01/11 09:02:48;;;;;;;7.47;5.00;;;;;;;4.94;100.00;100170.59;5012034;28;20049;-66
2022/01/11 09:05:14;;;;;;;6.40;4.00;;;;;;;4.78;100.00;100130.31;4994413;28;20095;-66
2022/01/11 09:07:40;;;;;;;6.32;3.55;;;;;;;4.44;100.00;100080.91;5012045;28;20511;-66
2022/01/11 09:10:07;;;;;;;4.68;3.53;;;;;;;4.93;100.00;100196.59;5012248;28;20030;-66
2022/01/11 09:12:33;;;;;;;4.65;3.05;;;;;;;4.64;100.00;100184.88;5011501;28;20022;-66
2022/01/11 09:14:59;;;;;;;5.88;3.78;;;;;;;4.85;100.00;100213.38;5011996;28;20029;-65
2022/01/11 09:17:24;;;;;;;5.43;3.80;;;;;;;4.58;100.00;100200.84;4994436;28;20094;-65
2022/01/11 09:19:50;;;;;;;5.35;3.80;;;;;;;4.41;100.00;100154.72;5012158;28;20486;-66
2022/01/11 09:22:15;;;;;;;5.93;3.95;;;;;;;4.73;100.00;100218.47;4994113;28;20025;-66
2022/01/11 09:24:41;;;;;;;4.78;3.70;;;;;;;4.66;100.00;100209.22;5011721;28;20080;-66
2022/01/11 09:27:07;;;;;;;5.40;4.03;;;;;;;4.80;100.00;100194.94;5011261;28;20122;-66
2022/01/11 09:29:37;;;;;;;4.60;3.35;;;;;;;4.67;100.00;100223.50;4994238;28;20124;-66
2022/01/11 09:32:04;;;;;;;4.55;3.63;;;;;;;4.28;100.00;100171.47;5011743;28;20471;-66
2022/01/11 09:34:30;;;;;;;6.28;3.95;;;;;;;4.17;100.00;100158.06;4993682;28;20021;-65
2022/01/11 09:36:56;;;;;;;6.60;4.38;;;;;;;4.58;100.00;100217.59;4993969;28;20034;-66
2022/01/11 09:39:21;;;;;;;5.57;4.55;;;;;;;4.42;100.00;100221.81;5011328;28;20096;-66
2022/01/11 09:41:47;;;;;;;6.03;4.50;;;;;;;4.54;100.00;100219.28;4993313;28;20030;-66
2022/01/11 09:44:13;;;;;;;6.88;5.35;;;;;;;4.43;100.00;100227.69;4993772;28;20042;-66
2022/01/11 09:46:39;;;;;;;6.88;5.00;;;;;;;4.42;100.00;100221.00;5011411;28;20052;-66
2022/01/11 09:49:05;;;;;;;8.23;6.07;;;;;;;4.42;100.00;100185.75;5011183;28;20561;-66
2022/01/11 09:51:32;;;;;;;8.95;5.63;;;;;;;4.36;100.00;100215.09;5011264;28;20037;-66
2022/01/11 09:53:58;;;;;;;7.35;5.50;;;;;;;4.12;100.00;100169.78;5011236;28;20033;-66
2022/01/11 09:56:23;;;;;;;7.30;5.72;;;;;;;4.20;100.00;100197.47;4993157;28;20092;-66
2022/01/11 09:58:49;;;;;;;8.13;6.32;;;;;;;4.08;100.00;100142.13;5011303;28;20036;-66
2022/01/11 10:01:14;;;;;;;11.18;6.22;;;;;;;4.32;100.00;100183.22;5011338;28;20076;-66
2022/01/11 10:04:00;;;;;;;7.60;5.80;;;;;;;4.45;100.00;100219.31;5011013;28;20129;-66
2022/01/11 10:06:26;;;;;;;7.57;5.63;;;;;;;4.27;100.00;100200.00;5010915;28;20038;-66
2022/01/11 10:09:08;;;;;;;8.13;6.13;;;;;;;4.13;100.00;100176.50;5010666;28;20448;-66
2022/01/11 10:11:38;;;;;;;11.32;7.47;;;;;;;3.94;100.00;100147.13;5011077;28;20065;-66
2022/01/11 10:14:17;;;;;;;12.30;7.95;;;;;;;4.28;100.00;100204.19;5010951;28;20037;-65
2022/01/11 10:16:43;;;;;;;9.32;7.25;;;;;;;4.15;100.00;100199.16;5010901;28;20034;-66
2022/01/11 10:19:20;;;;;;;10.40;7.35;;;;;;;4.22;100.00;100225.97;5010433;28;20041;-65
2022/01/11 10:21:47;;;;;;;11.27;6.97;;;;;;;3.95;100.00;100183.19;5010925;28;20021;-66
2022/01/11 10:24:21;;;;;;;11.48;7.43;;;;;;;4.17;100.00;100231.03;5010523;28;20104;-66
2022/01/11 10:26:47;;;;;;;10.52;8.20;;;;;;;3.56;100.00;100168.00;4993197;28;20030;-66
2022/01/11 10:29:24;;;;;;;12.20;7.97;;;;;;;3.99;100.00;100210.84;4993173;28;20506;-66
2022/01/11 10:31:50;;;;;;;11.20;7.90;;;;;;;3.88;100.00;100209.97;5010448;28;20120;-66
2022/01/11 10:34:28;;;;;;;10.75;8.00;;;;;;;3.83;100.00;100200.75;5010910;28;20055;-66
2022/01/11 10:36:54;;;;;;;12.85;8.43;;;;;;;3.87;100.00;100202.44;4993102;28;20180;-65
2022/01/11 10:39:29;;;;;;;11.38;8.73;;;;;;;3.49;100.00;100147.88;5010674;28;20485;-66
2022/01/11 10:41:57;;;;;;;11.38;7.97;;;;;;;3.69;100.00;100213.28;5010452;28;20042;-66
2022/01/11 10:44:44;;;;;;;12.77;8.35;;;;;;;3.66;100.00;100222.50;5010379;28;20065;-66
2022/01/11 10:47:10;;;;;;;12.27;8.70;;;;;;;3.77;100.00;100225.88;5010554;28;20029;-66
2022/01/11 10:49:36;;;;;;;12.43;8.40;;;;;;;3.73;100.00;100212.47;5010696;28;20045;-65
2022/01/11 10:52:26;;;;;;;12.27;8.35;;;;;;;3.57;100.00;100175.53;5010618;28;20050;-66
2022/01/11 10:54:52;;;;;;;13.35;8.95;;;;;;;3.41;100.00;100169.63;5010166;28;20496;-66
2022/01/11 10:57:27;;;;;;;15.32;11.07;;;;;;;3.54;100.00;100178.06;5010377;28;20049;-66
2022/01/11 11:00:22;;;;;;;17.67;12.30;;;;;;;3.80;100.00;100234.28;5010363;28;20038;-66
2022/01/11 11:02:58;;;;;;;16.20;11.23;;;;;;;3.31;100.00;100192.19;5001944;28;20495;-66
2022/01/11 11:05:31;;;;;;;15.18;10.50;;;;;;;3.53;100.00;100229.97;5010027;28;20117;-66
2022/01/11 11:08:06;;;;;;;13.82;9.60;;;;;;;3.14;100.00;100168.66;5010317;28;20064;-66
2022/01/11 11:10:34;;;;;;;19.50;12.15;;;;;;;3.51;100.00;100239.19;5010447;28;20030;-66
2022/01/11 11:13:01;;;;;;;15.25;10.68;;;;;;;3.45;100.00;100228.25;5009991;28;20034;-65
2022/01/11 11:15:38;;;;;;;17.83;12.13;;;;;;;2.90;100.00;100125.88;5010745;28;20030;-65
2022/01/11 11:18:06;;;;;;;16.73;11.48;;;;;;;3.66;100.00;100225.00;5010393;28;20029;-66
2022/01/11 11:20:33;;;;;;;16.40;11.57;;;;;;;3.51;100.00;100208.19;5010120;28;20026;-66
2022/01/11 11:22:59;;;;;;;19.30;11.45;;;;;;;3.46;100.00;100218.25;5010262;28;20065;-66
2022/01/11 11:25:26;;;;;;;16.02;10.85;;;;;;;3.19;100.00;100172.06;5010070;28;20037;-66
2022/01/11 11:27:51;;;;;;;14.70;10.20;;;;;;;3.23;100.00;100189.63;5010184;28;20495;-67
2022/01/11 11:30:18;;;;;;;15.63;10.95;;;;;;;3.09;100.00;100188.72;5009996;28;20112;-66